sensor_id;sensor_type;location;lat;lon;timestamp;P1;durP1;ratioP1;P2;durP2;ratioP2
3066;SDS011;1544;48.834;9.194;2023-06-26T00:00:47;9.67;;;8.70;;
3066;SDS011;1544;48.834;9.194;2023-06-26T00:03:23;11.33;;;9.30;;
3066;SDS011;1544;48.834;9.194;2023-06-26T00:05:59;8.70;;;7.90;;
3066;SDS011;1544;48.834;9.194;2023-06-26T00:08:36;9.70;;;8.80;;
3066;SDS011;1544;48.834;9.194;2023-06-26T00:11:12;8.73;;;7.93;;
3066;SDS011;1544;48.834;9.194;2023-06-26T00:13:48;8.33;;;7.60;;
3066;SDS011;1544;48.834;9.194;2023-06-26T00:16:24;9.10;;;8.30;;
3066;SDS011;1544;48.834;9.194;2023-06-26T00:19:00;8.10;;;7.40;;
3066;SDS011;1544;48.834;9.194;2023-06-26T00:21:36;8.23;;;7.43;;
3066;SDS011;1544;48.834;9.194;2023-06-26T00:24:12;9.23;;;8.30;;
3066;SDS011;1544;48.834;9.194;2023-06-26T00:26:49;10.10;;;8.87;;
3066;SDS011;1544;48.834;9.194;2023-06-26T00:29:25;9.53;;;8.40;;
3066;SDS011;1544;48.834;9.194;2023-06-26T00:32:01;9.03;;;8.13;;
3066;SDS011;1544;48.834;9.194;2023-06-26T00:34:37;8.73;;;7.90;;
3066;SDS011;1544;48.834;9.194;2023-06-26T00:37:13;9.50;;;8.60;;
3066;SDS011;1544;48.834;9.194;2023-06-26T00:39:49;8.50;;;7.70;;
3066;SDS011;1544;48.834;9.194;2023-06-26T00:42:25;9.53;;;8.23;;
3066;SDS011;1544;48.834;9.194;2023-06-26T00:45:01;10.00;;;8.07;;
3066;SDS011;1544;48.834;9.194;2023-06-26T00:47:38;8.90;;;8.00;;
3066;SDS011;1544;48.834;9.194;2023-06-26T00:50:14;8.80;;;7.43;;
3066;SDS011;1544;48.834;9.194;2023-06-26T00:52:51;9.20;;;8.40;;
3066;SDS011;1544;48.834;9.194;2023-06-26T00:55:27;11.10;;;9.97;;
3066;SDS011;1544;48.834;9.194;2023-06-26T00:58:04;9.37;;;8.47;;
3066;SDS011;1544;48.834;9.194;2023-06-26T01:00:40;9.37;;;8.37;;
3066;SDS011;1544;48.834;9.194;2023-06-26T01:03:22;8.43;;;7.63;;
3066;SDS011;1544;48.834;9.194;2023-06-26T01:06:00;8.37;;;7.70;;
3066;SDS011;1544;48.834;9.194;2023-06-26T01:08:37;8.67;;;7.87;;
3066;SDS011;1544;48.834;9.194;2023-06-26T01:11:14;8.03;;;7.33;;
3066;SDS011;1544;48.834;9.194;2023-06-26T01:13:50;8.60;;;7.70;;
3066;SDS011;1544;48.834;9.194;2023-06-26T01:16:27;9.60;;;8.30;;
3066;SDS011;1544;48.834;9.194;2023-06-26T01:19:09;8.67;;;7.87;;
3066;SDS011;1544;48.834;9.194;2023-06-26T01:21:51;9.33;;;8.33;;
3066;SDS011;1544;48.834;9.194;2023-06-26T01:24:35;9.80;;;8.20;;
3066;SDS011;1544;48.834;9.194;2023-06-26T01:27:15;9.13;;;8.30;;
3066;SDS011;1544;48.834;9.194;2023-06-26T01:29:53;8.53;;;7.73;;
3066;SDS011;1544;48.834;9.194;2023-06-26T01:32:31;9.23;;;8.33;;
3066;SDS011;1544;48.834;9.194;2023-06-26T01:35:08;9.73;;;8.73;;
3066;SDS011;1544;48.834;9.194;2023-06-26T01:37:44;8.60;;;7.73;;
3066;SDS011;1544;48.834;9.194;2023-06-26T01:40:20;9.03;;;8.10;;
3066;SDS011;1544;48.834;9.194;2023-06-26T01:42:56;9.50;;;8.60;;
3066;SDS011;1544;48.834;9.194;2023-06-26T01:45:33;8.83;;;7.83;;
3066;SDS011;1544;48.834;9.194;2023-06-26T01:48:10;8.77;;;7.87;;
3066;SDS011;1544;48.834;9.194;2023-06-26T01:50:50;8.60;;;7.80;;
3066;SDS011;1544;48.834;9.194;2023-06-26T01:53:30;9.63;;;8.60;;
3066;SDS011;1544;48.834;9.194;2023-06-26T01:56:13;9.70;;;8.87;;
3066;SDS011;1544;48.834;9.194;2023-06-26T01:58:54;9.73;;;8.30;;
3066;SDS011;1544;48.834;9.194;2023-06-26T02:01:31;9.20;;;8.27;;
3066;SDS011;1544;48.834;9.194;2023-06-26T02:04:08;8.77;;;7.90;;
3066;SDS011;1544;48.834;9.194;2023-06-26T02:06:44;10.03;;;9.07;;
3066;SDS011;1544;48.834;9.194;2023-06-26T02:09:20;10.00;;;7.70;;
3066;SDS011;1544;48.834;9.194;2023-06-26T02:11:56;9.43;;;8.63;;
3066;SDS011;1544;48.834;9.194;2023-06-26T02:14:33;8.83;;;7.93;;
3066;SDS011;1544;48.834;9.194;2023-06-26T02:17:09;10.93;;;8.10;;
3066;SDS011;1544;48.834;9.194;2023-06-26T02:19:45;8.57;;;7.77;;
3066;SDS011;1544;48.834;9.194;2023-06-26T02:22:23;9.90;;;9.00;;
3066;SDS011;1544;48.834;9.194;2023-06-26T02:24:59;8.20;;;7.50;;
3066;SDS011;1544;48.834;9.194;2023-06-26T02:27:35;9.33;;;8.53;;
3066;SDS011;1544;48.834;9.194;2023-06-26T02:30:11;7.90;;;7.20;;
3066;SDS011;1544;48.834;9.194;2023-06-26T02:32:47;7.77;;;6.97;;
3066;SDS011;1544;48.834;9.194;2023-06-26T02:35:26;10.20;;;9.13;;
3066;SDS011;1544;48.834;9.194;2023-06-26T02:38:02;6.80;;;6.30;;
3066;SDS011;1544;48.834;9.194;2023-06-26T02:40:38;7.97;;;7.17;;
3066;SDS011;1544;48.834;9.194;2023-06-26T02:43:14;7.97;;;7.23;;
3066;SDS011;1544;48.834;9.194;2023-06-26T02:45:52;9.17;;;8.27;;
3066;SDS011;1544;48.834;9.194;2023-06-26T02:48:28;7.60;;;7.00;;
3066;SDS011;1544;48.834;9.194;2023-06-26T02:51:04;8.97;;;8.10;;
3066;SDS011;1544;48.834;9.194;2023-06-26T02:53:41;8.63;;;7.67;;
3066;SDS011;1544;48.834;9.194;2023-06-26T02:56:17;8.77;;;7.80;;
3066;SDS011;1544;48.834;9.194;2023-06-26T02:58:53;8.00;;;7.17;;
3066;SDS011;1544;48.834;9.194;2023-06-26T03:01:29;8.50;;;7.70;;
3066;SDS011;1544;48.834;9.194;2023-06-26T03:04:05;7.80;;;7.07;;
3066;SDS011;1544;48.834;9.194;2023-06-26T03:06:41;8.47;;;7.73;;
3066;SDS011;1544;48.834;9.194;2023-06-26T03:09:17;7.70;;;7.03;;
3066;SDS011;1544;48.834;9.194;2023-06-26T03:11:53;7.37;;;6.70;;
3066;SDS011;1544;48.834;9.194;2023-06-26T03:14:31;8.53;;;7.70;;
3066;SDS011;1544;48.834;9.194;2023-06-26T03:17:07;8.53;;;7.77;;
3066;SDS011;1544;48.834;9.194;2023-06-26T03:19:45;8.80;;;7.40;;
3066;SDS011;1544;48.834;9.194;2023-06-26T03:22:26;8.17;;;7.37;;
3066;SDS011;1544;48.834;9.194;2023-06-26T03:25:03;9.37;;;8.47;;
3066;SDS011;1544;48.834;9.194;2023-06-26T03:27:40;8.13;;;7.43;;
3066;SDS011;1544;48.834;9.194;2023-06-26T03:30:16;8.80;;;8.00;;
3066;SDS011;1544;48.834;9.194;2023-06-26T03:32:55;8.47;;;7.67;;
3066;SDS011;1544;48.834;9.194;2023-06-26T03:35:31;8.23;;;7.53;;
3066;SDS011;1544;48.834;9.194;2023-06-26T03:38:07;9.30;;;7.40;;
3066;SDS011;1544;48.834;9.194;2023-06-26T03:40:43;8.30;;;7.50;;
3066;SDS011;1544;48.834;9.194;2023-06-26T03:43:19;7.83;;;7.10;;
3066;SDS011;1544;48.834;9.194;2023-06-26T03:46:21;8.07;;;7.27;;
3066;SDS011;1544;48.834;9.194;2023-06-26T03:48:57;8.20;;;7.47;;
3066;SDS011;1544;48.834;9.194;2023-06-26T03:51:33;8.70;;;7.90;;
3066;SDS011;1544;48.834;9.194;2023-06-26T03:54:09;9.53;;;8.47;;
3066;SDS011;1544;48.834;9.194;2023-06-26T03:56:45;7.43;;;6.83;;
3066;SDS011;1544;48.834;9.194;2023-06-26T03:59:22;7.67;;;6.97;;
3066;SDS011;1544;48.834;9.194;2023-06-26T04:01:58;8.00;;;6.90;;
3066;SDS011;1544;48.834;9.194;2023-06-26T04:04:34;8.43;;;7.57;;
3066;SDS011;1544;48.834;9.194;2023-06-26T04:07:10;8.20;;;7.40;;
3066;SDS011;1544;48.834;9.194;2023-06-26T04:09:46;8.37;;;7.53;;
3066;SDS011;1544;48.834;9.194;2023-06-26T04:12:22;9.10;;;8.20;;
3066;SDS011;1544;48.834;9.194;2023-06-26T04:14:59;7.80;;;7.00;;
3066;SDS011;1544;48.834;9.194;2023-06-26T04:17:35;9.60;;;7.60;;
3066;SDS011;1544;48.834;9.194;2023-06-26T04:20:11;8.53;;;7.83;;
3066;SDS011;1544;48.834;9.194;2023-06-26T04:22:48;9.23;;;8.30;;
3066;SDS011;1544;48.834;9.194;2023-06-26T04:25:24;9.13;;;8.33;;
3066;SDS011;1544;48.834;9.194;2023-06-26T04:28:04;9.47;;;8.63;;
3066;SDS011;1544;48.834;9.194;2023-06-26T04:30:40;8.93;;;8.00;;
3066;SDS011;1544;48.834;9.194;2023-06-26T04:33:16;8.53;;;7.73;;
3066;SDS011;1544;48.834;9.194;2023-06-26T04:35:52;8.50;;;7.80;;
3066;SDS011;1544;48.834;9.194;2023-06-26T04:38:29;9.03;;;8.00;;
3066;SDS011;1544;48.834;9.194;2023-06-26T04:41:08;9.30;;;8.40;;
3066;SDS011;1544;48.834;9.194;2023-06-26T04:43:44;8.40;;;7.60;;
3066;SDS011;1544;48.834;9.194;2023-06-26T04:46:20;8.77;;;7.47;;
3066;SDS011;1544;48.834;9.194;2023-06-26T04:48:57;8.60;;;7.70;;
3066;SDS011;1544;48.834;9.194;2023-06-26T04:51:33;7.90;;;7.13;;
3066;SDS011;1544;48.834;9.194;2023-06-26T04:54:13;9.40;;;8.50;;
3066;SDS011;1544;48.834;9.194;2023-06-26T04:56:49;8.50;;;7.63;;
3066;SDS011;1544;48.834;9.194;2023-06-26T04:59:25;9.00;;;8.10;;
3066;SDS011;1544;48.834;9.194;2023-06-26T05:02:01;9.53;;;8.63;;
3066;SDS011;1544;48.834;9.194;2023-06-26T05:04:38;9.30;;;7.50;;
3066;SDS011;1544;48.834;9.194;2023-06-26T05:07:17;8.60;;;7.80;;
3066;SDS011;1544;48.834;9.194;2023-06-26T05:09:53;9.23;;;8.33;;
3066;SDS011;1544;48.834;9.194;2023-06-26T05:12:29;8.17;;;7.37;;
3066;SDS011;1544;48.834;9.194;2023-06-26T05:15:05;9.27;;;8.37;;
3066;SDS011;1544;48.834;9.194;2023-06-26T05:17:41;9.33;;;8.43;;
3066;SDS011;1544;48.834;9.194;2023-06-26T05:20:17;8.73;;;7.93;;
3066;SDS011;1544;48.834;9.194;2023-06-26T05:22:53;10.30;;;8.00;;
3066;SDS011;1544;48.834;9.194;2023-06-26T05:25:30;9.57;;;8.10;;
3066;SDS011;1544;48.834;9.194;2023-06-26T05:28:07;10.30;;;8.40;;
3066;SDS011;1544;48.834;9.194;2023-06-26T05:30:45;8.53;;;7.73;;
3066;SDS011;1544;48.834;9.194;2023-06-26T05:33:23;9.50;;;8.50;;
3066;SDS011;1544;48.834;9.194;2023-06-26T05:36:01;8.50;;;7.73;;
3066;SDS011;1544;48.834;9.194;2023-06-26T05:38:41;8.37;;;7.47;;
3066;SDS011;1544;48.834;9.194;2023-06-26T05:41:17;8.10;;;7.40;;
3066;SDS011;1544;48.834;9.194;2023-06-26T05:43:54;8.73;;;7.93;;
3066;SDS011;1544;48.834;9.194;2023-06-26T05:46:30;9.30;;;7.80;;
3066;SDS011;1544;48.834;9.194;2023-06-26T05:49:06;9.30;;;8.37;;
3066;SDS011;1544;48.834;9.194;2023-06-26T05:51:42;7.70;;;7.00;;
3066;SDS011;1544;48.834;9.194;2023-06-26T05:54:19;8.30;;;7.50;;
3066;SDS011;1544;48.834;9.194;2023-06-26T05:56:58;9.10;;;8.20;;
3066;SDS011;1544;48.834;9.194;2023-06-26T05:59:34;8.30;;;7.50;;
3066;SDS011;1544;48.834;9.194;2023-06-26T06:02:15;8.50;;;7.83;;
3066;SDS011;1544;48.834;9.194;2023-06-26T06:04:51;7.73;;;6.97;;
3066;SDS011;1544;48.834;9.194;2023-06-26T06:07:27;8.10;;;7.40;;
3066;SDS011;1544;48.834;9.194;2023-06-26T06:10:03;7.87;;;7.07;;
3066;SDS011;1544;48.834;9.194;2023-06-26T06:12:40;8.43;;;7.63;;
3066;SDS011;1544;48.834;9.194;2023-06-26T06:15:16;8.80;;;7.97;;
3066;SDS011;1544;48.834;9.194;2023-06-26T06:17:52;9.70;;;8.70;;
3066;SDS011;1544;48.834;9.194;2023-06-26T06:20:28;8.53;;;7.73;;
3066;SDS011;1544;48.834;9.194;2023-06-26T06:23:04;7.20;;;6.60;;
3066;SDS011;1544;48.834;9.194;2023-06-26T06:25:40;8.03;;;7.23;;
3066;SDS011;1544;48.834;9.194;2023-06-26T06:28:16;8.90;;;7.57;;
3066;SDS011;1544;48.834;9.194;2023-06-26T06:30:52;8.63;;;7.77;;
3066;SDS011;1544;48.834;9.194;2023-06-26T06:33:28;7.30;;;6.70;;
3066;SDS011;1544;48.834;9.194;2023-06-26T06:36:04;8.03;;;7.33;;
3066;SDS011;1544;48.834;9.194;2023-06-26T06:38:43;7.40;;;6.70;;
3066;SDS011;1544;48.834;9.194;2023-06-26T06:41:20;7.90;;;7.20;;
3066;SDS011;1544;48.834;9.194;2023-06-26T06:43:56;6.87;;;6.27;;
3066;SDS011;1544;48.834;9.194;2023-06-26T06:46:32;6.87;;;6.27;;
3066;SDS011;1544;48.834;9.194;2023-06-26T06:49:08;6.83;;;6.23;;
3066;SDS011;1544;48.834;9.194;2023-06-26T06:51:44;6.70;;;6.20;;
3066;SDS011;1544;48.834;9.194;2023-06-26T06:54:20;7.50;;;6.90;;
3066;SDS011;1544;48.834;9.194;2023-06-26T06:56:56;7.53;;;6.90;;
3066;SDS011;1544;48.834;9.194;2023-06-26T06:59:32;7.40;;;6.73;;
3066;SDS011;1544;48.834;9.194;2023-06-26T07:02:08;8.10;;;7.30;;
3066;SDS011;1544;48.834;9.194;2023-06-26T07:04:44;7.17;;;6.50;;
3066;SDS011;1544;48.834;9.194;2023-06-26T07:07:20;7.00;;;6.40;;
3066;SDS011;1544;48.834;9.194;2023-06-26T07:09:58;7.60;;;6.90;;
3066;SDS011;1544;48.834;9.194;2023-06-26T07:12:41;6.90;;;6.40;;
3066;SDS011;1544;48.834;9.194;2023-06-26T07:15:19;8.00;;;7.30;;
3066;SDS011;1544;48.834;9.194;2023-06-26T07:17:55;8.70;;;7.83;;
3066;SDS011;1544;48.834;9.194;2023-06-26T07:20:31;8.97;;;7.10;;
3066;SDS011;1544;48.834;9.194;2023-06-26T07:23:07;7.17;;;6.57;;
3066;SDS011;1544;48.834;9.194;2023-06-26T07:25:43;7.87;;;7.07;;
3066;SDS011;1544;48.834;9.194;2023-06-26T07:28:19;6.60;;;6.10;;
3066;SDS011;1544;48.834;9.194;2023-06-26T07:30:55;6.40;;;5.90;;
3066;SDS011;1544;48.834;9.194;2023-06-26T07:33:31;7.60;;;6.90;;
3066;SDS011;1544;48.834;9.194;2023-06-26T07:36:07;7.60;;;6.97;;
3066;SDS011;1544;48.834;9.194;2023-06-26T07:38:44;7.70;;;7.10;;
3066;SDS011;1544;48.834;9.194;2023-06-26T07:41:19;7.43;;;6.93;;
3066;SDS011;1544;48.834;9.194;2023-06-26T07:43:56;7.77;;;7.07;;
3066;SDS011;1544;48.834;9.194;2023-06-26T07:46:33;7.17;;;6.57;;
3066;SDS011;1544;48.834;9.194;2023-06-26T07:49:09;8.17;;;7.37;;
3066;SDS011;1544;48.834;9.194;2023-06-26T07:51:46;7.17;;;6.60;;
3066;SDS011;1544;48.834;9.194;2023-06-26T07:54:23;6.73;;;6.30;;
3066;SDS011;1544;48.834;9.194;2023-06-26T07:57:00;8.13;;;7.30;;
3066;SDS011;1544;48.834;9.194;2023-06-26T07:59:38;7.07;;;6.47;;
3066;SDS011;1544;48.834;9.194;2023-06-26T08:02:14;7.13;;;6.50;;
3066;SDS011;1544;48.834;9.194;2023-06-26T08:04:50;6.07;;;5.57;;
3066;SDS011;1544;48.834;9.194;2023-06-26T08:07:27;6.00;;;5.70;;
3066;SDS011;1544;48.834;9.194;2023-06-26T08:10:03;6.60;;;6.10;;
3066;SDS011;1544;48.834;9.194;2023-06-26T08:12:39;6.80;;;6.23;;
3066;SDS011;1544;48.834;9.194;2023-06-26T08:15:18;5.83;;;5.53;;
3066;SDS011;1544;48.834;9.194;2023-06-26T08:17:54;6.50;;;6.00;;
3066;SDS011;1544;48.834;9.194;2023-06-26T08:20:30;5.83;;;5.43;;
3066;SDS011;1544;48.834;9.194;2023-06-26T08:23:06;5.70;;;5.20;;
3066;SDS011;1544;48.834;9.194;2023-06-26T08:25:42;5.97;;;5.50;;
3066;SDS011;1544;48.834;9.194;2023-06-26T08:28:18;6.03;;;5.57;;
3066;SDS011;1544;48.834;9.194;2023-06-26T08:30:54;6.77;;;6.23;;
3066;SDS011;1544;48.834;9.194;2023-06-26T08:33:30;6.13;;;5.63;;
3066;SDS011;1544;48.834;9.194;2023-06-26T08:36:06;6.20;;;5.80;;
3066;SDS011;1544;48.834;9.194;2023-06-26T08:38:42;5.07;;;4.77;;
3066;SDS011;1544;48.834;9.194;2023-06-26T08:41:18;6.10;;;5.60;;
3066;SDS011;1544;48.834;9.194;2023-06-26T08:43:54;6.17;;;5.67;;
3066;SDS011;1544;48.834;9.194;2023-06-26T08:46:30;6.80;;;5.40;;
3066;SDS011;1544;48.834;9.194;2023-06-26T08:49:14;6.27;;;5.63;;
3066;SDS011;1544;48.834;9.194;2023-06-26T08:51:57;6.43;;;5.17;;
3066;SDS011;1544;48.834;9.194;2023-06-26T08:54:40;5.47;;;5.10;;
3066;SDS011;1544;48.834;9.194;2023-06-26T08:57:22;5.40;;;4.90;;
3066;SDS011;1544;48.834;9.194;2023-06-26T08:59:59;5.43;;;5.03;;
3066;SDS011;1544;48.834;9.194;2023-06-26T09:02:36;5.40;;;5.10;;
3066;SDS011;1544;48.834;9.194;2023-06-26T09:05:12;5.60;;;5.23;;
3066;SDS011;1544;48.834;9.194;2023-06-26T09:07:48;5.67;;;5.27;;
3066;SDS011;1544;48.834;9.194;2023-06-26T09:10:24;5.40;;;5.00;;
3066;SDS011;1544;48.834;9.194;2023-06-26T09:13:00;5.97;;;5.43;;
3066;SDS011;1544;48.834;9.194;2023-06-26T09:15:42;5.17;;;4.80;;
3066;SDS011;1544;48.834;9.194;2023-06-26T09:18:20;5.20;;;4.77;;
3066;SDS011;1544;48.834;9.194;2023-06-26T09:20:56;4.57;;;4.37;;
3066;SDS011;1544;48.834;9.194;2023-06-26T09:23:33;5.77;;;5.47;;
3066;SDS011;1544;48.834;9.194;2023-06-26T09:26:11;5.43;;;5.13;;
3066;SDS011;1544;48.834;9.194;2023-06-26T09:28:47;5.57;;;5.17;;
3066;SDS011;1544;48.834;9.194;2023-06-26T09:31:26;5.37;;;4.97;;
3066;SDS011;1544;48.834;9.194;2023-06-26T09:34:15;5.23;;;4.77;;
3066;SDS011;1544;48.834;9.194;2023-06-26T09:36:52;4.73;;;4.43;;
3066;SDS011;1544;48.834;9.194;2023-06-26T09:39:32;5.10;;;4.77;;
3066;SDS011;1544;48.834;9.194;2023-06-26T09:42:08;5.03;;;4.73;;
3066;SDS011;1544;48.834;9.194;2023-06-26T09:44:45;4.97;;;4.57;;
3066;SDS011;1544;48.834;9.194;2023-06-26T09:47:22;4.53;;;4.33;;
3066;SDS011;1544;48.834;9.194;2023-06-26T09:50:02;5.93;;;5.43;;
3066;SDS011;1544;48.834;9.194;2023-06-26T09:52:40;5.10;;;4.70;;
3066;SDS011;1544;48.834;9.194;2023-06-26T09:55:16;6.03;;;5.43;;
3066;SDS011;1544;48.834;9.194;2023-06-26T09:57:56;5.40;;;5.00;;
3066;SDS011;1544;48.834;9.194;2023-06-26T10:00:38;5.53;;;5.13;;
3066;SDS011;1544;48.834;9.194;2023-06-26T10:03:15;5.27;;;4.67;;
3066;SDS011;1544;48.834;9.194;2023-06-26T10:05:52;5.40;;;4.90;;
3066;SDS011;1544;48.834;9.194;2023-06-26T10:08:28;5.80;;;5.50;;
3066;SDS011;1544;48.834;9.194;2023-06-26T10:11:06;5.37;;;5.00;;
3066;SDS011;1544;48.834;9.194;2023-06-26T10:13:49;5.63;;;5.33;;
3066;SDS011;1544;48.834;9.194;2023-06-26T10:16:36;6.93;;;6.33;;
3066;SDS011;1544;48.834;9.194;2023-06-26T10:19:15;6.30;;;5.80;;
3066;SDS011;1544;48.834;9.194;2023-06-26T10:21:59;5.93;;;5.63;;
3066;SDS011;1544;48.834;9.194;2023-06-26T10:24:37;6.20;;;5.37;;
3066;SDS011;1544;48.834;9.194;2023-06-26T10:27:19;6.10;;;5.80;;
3066;SDS011;1544;48.834;9.194;2023-06-26T10:29:58;6.80;;;6.10;;
3066;SDS011;1544;48.834;9.194;2023-06-26T10:32:38;6.77;;;6.17;;
3066;SDS011;1544;48.834;9.194;2023-06-26T10:35:15;6.30;;;6.00;;
3066;SDS011;1544;48.834;9.194;2023-06-26T10:37:52;6.57;;;5.97;;
3066;SDS011;1544;48.834;9.194;2023-06-26T10:40:40;6.60;;;6.20;;
3066;SDS011;1544;48.834;9.194;2023-06-26T10:43:29;6.13;;;5.73;;
3066;SDS011;1544;48.834;9.194;2023-06-26T10:46:06;6.60;;;6.10;;
3066;SDS011;1544;48.834;9.194;2023-06-26T10:48:55;6.87;;;6.20;;
3066;SDS011;1544;48.834;9.194;2023-06-26T10:51:33;6.60;;;6.10;;
3066;SDS011;1544;48.834;9.194;2023-06-26T10:54:11;6.23;;;5.73;;
3066;SDS011;1544;48.834;9.194;2023-06-26T10:56:50;6.30;;;5.90;;
3066;SDS011;1544;48.834;9.194;2023-06-26T10:59:33;6.80;;;5.90;;
3066;SDS011;1544;48.834;9.194;2023-06-26T11:02:09;7.33;;;6.83;;
3066;SDS011;1544;48.834;9.194;2023-06-26T11:04:47;5.80;;;5.50;;
3066;SDS011;1544;48.834;9.194;2023-06-26T11:07:28;6.50;;;6.00;;
3066;SDS011;1544;48.834;9.194;2023-06-26T11:12:41;7.47;;;6.83;;
3066;SDS011;1544;48.834;9.194;2023-06-26T11:15:24;6.57;;;6.17;;
3066;SDS011;1544;48.834;9.194;2023-06-26T11:18:01;9.77;;;5.80;;
3066;SDS011;1544;48.834;9.194;2023-06-26T11:20:38;6.57;;;6.23;;
3066;SDS011;1544;48.834;9.194;2023-06-26T11:23:15;6.90;;;6.40;;
3066;SDS011;1544;48.834;9.194;2023-06-26T11:26:18;7.00;;;6.40;;
3066;SDS011;1544;48.834;9.194;2023-06-26T11:28:58;6.50;;;6.00;;
3066;SDS011;1544;48.834;9.194;2023-06-26T11:31:35;7.17;;;6.03;;
3066;SDS011;1544;48.834;9.194;2023-06-26T11:34:13;6.53;;;6.03;;
3066;SDS011;1544;48.834;9.194;2023-06-26T11:36:50;6.37;;;5.83;;
3066;SDS011;1544;48.834;9.194;2023-06-26T11:39:25;6.93;;;6.37;;
3066;SDS011;1544;48.834;9.194;2023-06-26T11:42:01;6.20;;;5.73;;
3066;SDS011;1544;48.834;9.194;2023-06-26T11:44:41;6.70;;;6.07;;
3066;SDS011;1544;48.834;9.194;2023-06-26T11:47:19;6.73;;;6.23;;
3066;SDS011;1544;48.834;9.194;2023-06-26T11:49:56;7.00;;;6.37;;
3066;SDS011;1544;48.834;9.194;2023-06-26T11:52:32;5.60;;;5.20;;
3066;SDS011;1544;48.834;9.194;2023-06-26T11:55:08;7.80;;;5.27;;
3066;SDS011;1544;48.834;9.194;2023-06-26T11:57:49;5.70;;;5.40;;
3066;SDS011;1544;48.834;9.194;2023-06-26T12:00:26;7.17;;;6.47;;
3066;SDS011;1544;48.834;9.194;2023-06-26T12:03:02;6.53;;;6.13;;
3066;SDS011;1544;48.834;9.194;2023-06-26T12:05:38;6.70;;;6.10;;
3066;SDS011;1544;48.834;9.194;2023-06-26T12:08:16;7.60;;;6.37;;
3066;SDS011;1544;48.834;9.194;2023-06-26T12:10:52;5.40;;;5.00;;
3066;SDS011;1544;48.834;9.194;2023-06-26T12:13:28;5.80;;;5.17;;
3066;SDS011;1544;48.834;9.194;2023-06-26T12:16:04;7.70;;;6.20;;
3066;SDS011;1544;48.834;9.194;2023-06-26T12:18:40;6.27;;;5.90;;
3066;SDS011;1544;48.834;9.194;2023-06-26T12:24:18;5.53;;;5.13;;
3066;SDS011;1544;48.834;9.194;2023-06-26T12:26:57;6.07;;;5.67;;
3066;SDS011;1544;48.834;9.194;2023-06-26T12:29:33;6.50;;;5.93;;
3066;SDS011;1544;48.834;9.194;2023-06-26T12:32:10;5.70;;;5.30;;
3066;SDS011;1544;48.834;9.194;2023-06-26T12:34:48;6.47;;;5.97;;
3066;SDS011;1544;48.834;9.194;2023-06-26T12:37:25;7.03;;;5.90;;
3066;SDS011;1544;48.834;9.194;2023-06-26T12:40:01;6.80;;;6.30;;
3066;SDS011;1544;48.834;9.194;2023-06-26T12:42:41;6.33;;;5.90;;
3066;SDS011;1544;48.834;9.194;2023-06-26T12:45:17;6.37;;;5.70;;
3066;SDS011;1544;48.834;9.194;2023-06-26T12:48:06;6.40;;;5.90;;
3066;SDS011;1544;48.834;9.194;2023-06-26T12:50:44;6.23;;;5.80;;
3066;SDS011;1544;48.834;9.194;2023-06-26T12:53:21;6.80;;;5.50;;
3066;SDS011;1544;48.834;9.194;2023-06-26T12:55:57;6.40;;;5.87;;
3066;SDS011;1544;48.834;9.194;2023-06-26T12:58:36;6.07;;;5.67;;
3066;SDS011;1544;48.834;9.194;2023-06-26T13:01:13;5.77;;;5.37;;
3066;SDS011;1544;48.834;9.194;2023-06-26T13:03:50;6.40;;;6.00;;
3066;SDS011;1544;48.834;9.194;2023-06-26T13:06:27;5.47;;;5.07;;
3066;SDS011;1544;48.834;9.194;2023-06-26T13:09:03;6.03;;;5.30;;
3066;SDS011;1544;48.834;9.194;2023-06-26T13:11:41;6.53;;;5.13;;
3066;SDS011;1544;48.834;9.194;2023-06-26T13:14:17;5.63;;;5.23;;
3066;SDS011;1544;48.834;9.194;2023-06-26T13:16:54;5.67;;;5.37;;
3066;SDS011;1544;48.834;9.194;2023-06-26T13:19:30;5.10;;;4.67;;
3066;SDS011;1544;48.834;9.194;2023-06-26T13:22:07;4.97;;;4.57;;
3066;SDS011;1544;48.834;9.194;2023-06-26T13:24:43;6.83;;;5.20;;
3066;SDS011;1544;48.834;9.194;2023-06-26T13:27:19;4.80;;;4.40;;
3066;SDS011;1544;48.834;9.194;2023-06-26T13:29:55;5.53;;;5.13;;
3066;SDS011;1544;48.834;9.194;2023-06-26T13:32:31;4.87;;;4.53;;
3066;SDS011;1544;48.834;9.194;2023-06-26T13:35:07;4.97;;;4.67;;
3066;SDS011;1544;48.834;9.194;2023-06-26T13:37:44;5.30;;;4.60;;
3066;SDS011;1544;48.834;9.194;2023-06-26T13:40:24;4.80;;;4.50;;
3066;SDS011;1544;48.834;9.194;2023-06-26T13:43:00;4.50;;;4.20;;
3066;SDS011;1544;48.834;9.194;2023-06-26T13:45:38;4.17;;;3.97;;
3066;SDS011;1544;48.834;9.194;2023-06-26T13:48:14;8.73;;;4.40;;
3066;SDS011;1544;48.834;9.194;2023-06-26T13:50:52;4.90;;;4.60;;
3066;SDS011;1544;48.834;9.194;2023-06-26T13:53:29;4.10;;;3.90;;
3066;SDS011;1544;48.834;9.194;2023-06-26T13:56:08;4.50;;;4.00;;
3066;SDS011;1544;48.834;9.194;2023-06-26T13:58:44;4.10;;;3.83;;
3066;SDS011;1544;48.834;9.194;2023-06-26T14:01:20;3.47;;;3.17;;
3066;SDS011;1544;48.834;9.194;2023-06-26T14:03:56;3.87;;;3.60;;
3066;SDS011;1544;48.834;9.194;2023-06-26T14:06:32;4.53;;;4.33;;
3066;SDS011;1544;48.834;9.194;2023-06-26T14:09:09;3.87;;;3.40;;
3066;SDS011;1544;48.834;9.194;2023-06-26T14:11:45;5.37;;;3.87;;
3066;SDS011;1544;48.834;9.194;2023-06-26T14:14:21;3.50;;;3.30;;
3066;SDS011;1544;48.834;9.194;2023-06-26T14:16:57;3.30;;;3.10;;
3066;SDS011;1544;48.834;9.194;2023-06-26T14:19:36;4.17;;;3.33;;
3066;SDS011;1544;48.834;9.194;2023-06-26T14:22:12;3.33;;;3.10;;
3066;SDS011;1544;48.834;9.194;2023-06-26T14:24:49;2.30;;;2.20;;
3066;SDS011;1544;48.834;9.194;2023-06-26T14:27:25;3.43;;;2.60;;
3066;SDS011;1544;48.834;9.194;2023-06-26T14:30:02;3.53;;;3.03;;
3066;SDS011;1544;48.834;9.194;2023-06-26T14:32:39;2.50;;;2.40;;
3066;SDS011;1544;48.834;9.194;2023-06-26T14:35:16;2.63;;;2.40;;
3066;SDS011;1544;48.834;9.194;2023-06-26T14:37:53;2.00;;;1.80;;
3066;SDS011;1544;48.834;9.194;2023-06-26T14:40:29;2.63;;;2.53;;
3066;SDS011;1544;48.834;9.194;2023-06-26T14:43:06;2.63;;;2.47;;
3066;SDS011;1544;48.834;9.194;2023-06-26T14:45:44;3.30;;;3.10;;
3066;SDS011;1544;48.834;9.194;2023-06-26T14:48:20;2.43;;;2.23;;
3066;SDS011;1544;48.834;9.194;2023-06-26T14:50:56;2.70;;;2.50;;
3066;SDS011;1544;48.834;9.194;2023-06-26T14:53:33;2.60;;;2.40;;
3066;SDS011;1544;48.834;9.194;2023-06-26T14:56:11;2.70;;;2.60;;
3066;SDS011;1544;48.834;9.194;2023-06-26T14:58:47;3.00;;;2.73;;
3066;SDS011;1544;48.834;9.194;2023-06-26T15:01:23;4.97;;;2.90;;
3066;SDS011;1544;48.834;9.194;2023-06-26T15:03:59;2.77;;;2.57;;
3066;SDS011;1544;48.834;9.194;2023-06-26T15:06:35;2.53;;;2.43;;
3066;SDS011;1544;48.834;9.194;2023-06-26T15:09:12;3.63;;;3.33;;
3066;SDS011;1544;48.834;9.194;2023-06-26T15:11:47;3.47;;;3.17;;
3066;SDS011;1544;48.834;9.194;2023-06-26T15:14:24;2.73;;;2.53;;
3066;SDS011;1544;48.834;9.194;2023-06-26T15:17:00;3.97;;;3.50;;
3066;SDS011;1544;48.834;9.194;2023-06-26T15:19:36;6.53;;;3.70;;
3066;SDS011;1544;48.834;9.194;2023-06-26T15:22:17;3.60;;;3.27;;
3066;SDS011;1544;48.834;9.194;2023-06-26T15:24:53;4.07;;;3.70;;
3066;SDS011;1544;48.834;9.194;2023-06-26T15:27:30;3.93;;;3.63;;
3066;SDS011;1544;48.834;9.194;2023-06-26T15:30:06;5.40;;;5.00;;
3066;SDS011;1544;48.834;9.194;2023-06-26T15:32:43;4.80;;;4.23;;
3066;SDS011;1544;48.834;9.194;2023-06-26T15:35:20;4.67;;;4.33;;
3066;SDS011;1544;48.834;9.194;2023-06-26T15:37:56;5.60;;;5.10;;
3066;SDS011;1544;48.834;9.194;2023-06-26T15:40:33;5.17;;;4.67;;
3066;SDS011;1544;48.834;9.194;2023-06-26T15:43:09;5.00;;;4.70;;
3066;SDS011;1544;48.834;9.194;2023-06-26T15:45:45;5.00;;;4.70;;
3066;SDS011;1544;48.834;9.194;2023-06-26T15:48:21;5.63;;;5.23;;
3066;SDS011;1544;48.834;9.194;2023-06-26T15:51:00;5.93;;;4.73;;
3066;SDS011;1544;48.834;9.194;2023-06-26T15:53:38;5.37;;;4.87;;
3066;SDS011;1544;48.834;9.194;2023-06-26T15:56:14;5.60;;;5.10;;
3066;SDS011;1544;48.834;9.194;2023-06-26T15:58:52;6.53;;;5.87;;
3066;SDS011;1544;48.834;9.194;2023-06-26T16:01:28;5.20;;;4.80;;
3066;SDS011;1544;48.834;9.194;2023-06-26T16:04:04;6.33;;;5.70;;
3066;SDS011;1544;48.834;9.194;2023-06-26T16:06:40;5.73;;;5.13;;
3066;SDS011;1544;48.834;9.194;2023-06-26T16:09:16;8.13;;;5.90;;
3066;SDS011;1544;48.834;9.194;2023-06-26T16:11:52;7.23;;;6.53;;
3066;SDS011;1544;48.834;9.194;2023-06-26T16:14:28;6.43;;;5.83;;
3066;SDS011;1544;48.834;9.194;2023-06-26T16:17:04;6.00;;;5.50;;
3066;SDS011;1544;48.834;9.194;2023-06-26T16:19:41;6.53;;;6.03;;
3066;SDS011;1544;48.834;9.194;2023-06-26T16:22:17;6.27;;;5.73;;